Главная страница
METAR-TAF:

METAR-TAF

Аэропорты :

Икалуит, Нунавут, Канада

широта: 63-45N, долгота: 068-33W, высота над уровнем моря: 34 м

Текущие метеонаблюдения

Эта сводка был подготовлена 32 минут назад, в 17:00 UTC
Ветер 3 Узел переменных направлений
Температура -24°C
Влажность 76%
Давление 1009 hPa
Видимость: 32.2 км
Отдельные облака на высоте 12000 фута
Рассеянная облачность на высоте 18000 фута

METAR: CYFB 191700Z VRB03KT 20SM SCT120 BKN180 M24/M27 A2979 RMK AC3AC4 SLP096

Время: 12:32 (17:32 UTC)

Прогноз

Эта сводка был подготовлена 5 часа и 54 минут назад, в 11:38 UTC
Прогноз действительный с 19-го 12 UTC до 20-го 12 UTC
Ветер 5 Узел от северно-северо-западный
Видимость: 10 км
Отдельные облака на высоте 6000 фута
Отдельные облака на высоте 12000 фута
Ледяные иглы

TAF: CYFB 191138Z 1912/2012 34005KT P6SM IC SCT060 SCT120 RMK NXT FCST BY 191800Z

Метеонаблюдения и прогнозы для более 4000 аэропортов (сводки METAR и TAF).

Имеющиеся станции представлены на карте желтыми и красными точками.

Чтобы увидеть название станции, наведите на нее мышь.

Затем щелкните, чтобы увидеть метеонаблюдения и метеопрогнозы.

Управление картой: чтобы увеличить масштаб, щелкните зеленые кнопки с черным крестиком; чтобы уменьшить масштаб, щелкните зеленую кнопку с тире; для просмотра соседних карт щелкайте зеленые стрелки.


METAR-TAF: